Terminal Aerodrome Forecast
Issued by NWS North Platte, NE

Home | Current Version | Previous Version | Graphics & Text | Print | Product List | Glossary On
Versions: 1 2 3 4 5 6 7 8 9 10 11 12 13 14
321
FTUS43 KLBF 211139
TAFVTN
TAF
KVTN 211139Z 2112/2212 01014KT 2SM -SN OVC005
     FM211600 01011G19KT 1SM -SN OVC005
     FM220100 36016G24KT 1SM -SN BLSN OVC008
     FM220600 35016G24KT 2SM -SN BLSN OVC015
     FM220900 34015G24KT P6SM OVC010=

USA.gov is the U.S. government's official web portal to all federal, state and local government web resources and services.